Sequan Truck Trail (1166, 625) Station Data

Red Flag Warning: No
Fire Weather Zone: 250
SDGE Region: Eastern
Lat/Lon: 32.798/-116.779

Observations

Time Wind Speed/Gust Temp(F) RH Fuel Moist Fuel Temp(F) Dewpt(F) Tmax(F) Tmin(F) Accum Precip 10-min Precip SL Press(mb)
4/26 2:50am 70 2 G 3 55° 70% - - 46° 56.5° 53.3° - - -
4/26 2:40am 104 1 G 2 55° 71% - - 46° 56.5° 53.3° - - -
4/26 2:30am 15 1 G 2 55° 72% - - 46° 56.5° 53.3° - - -
4/26 2:20am 357 2 G 4 55° 71% - - 46° 56.5° 53.3° - - -
4/26 2:10am 216 2 G 3 54° 73% - - 46° 56.5° 53.3° - - -
4/26 2:00am 140 2 G 3 56° 70% - - 46° 56.5° 53.3° - - -
4/26 1:50am 87 3 G 6 56° 71% - - 46° 56.5° 53.3° - - -
4/26 1:40am 118 4 G 5 55° 73% - - 46° 56.5° 53.3° - - -
4/26 1:30am 82 3 G 5 54° 73% - - 46° 56.5° 53.3° - - -
4/26 1:20am 95 1 G 4 54° 74% - - 46° 56.5° 53.3° - - -
4/26 1:10am 140 4 G 7 55° 72% - - 46° 56.5° 53.3° - - -
4/26 1:00am 142 4 G 4 56° 71% - - 46° 56.5° 53.3° - - -
4/26 12:50am 168 3 G 4 56° 71% - - 46° 56.5° 53.3° - - -
4/26 12:40am 174 5 G 6 55° 72% - - 46° 55.6° 53.3° - - -
4/26 12:30am 131 5 G 7 54° 73% - - 46° 54.9° 53.3° - - -
4/26 12:20am 101 3 G 4 54° 73% - - 45° 54.9° 53.3° - - -
4/26 12:10am 102 5 G 7 54° 72% - - 45° 54.9° 53.3° - - -
4/26 12:00am 95 6 G 7 54° 71% - - 45° 64.1° 52.1° - - -
4/25 11:50pm 96 8 G 9 55° 70% - - 45° 64.1° 52.1° - - -
4/25 11:40pm 89 8 G 9 55° 70% - - 45° 64.1° 52.1° - - -
4/25 11:30pm 96 9 G 10 54° 70% - - 45° 64.1° 52.1° - - -
4/25 11:20pm 98 10 G 11 54° 71% - - 45° 64.1° 52.1° - - -
4/25 11:10pm 96 10 G 12 54° 72% - - 45° 64.1° 52.1° - - -
4/25 11:00pm 95 11 G 12 54° 71% - - 45° 64.1° 52.1° - - -
4/25 10:50pm 100 11 G 12 54° 71% - - 45° 64.1° 52.1° - - -
4/25 10:40pm 108 7 G 9 55° 70% - - 45° 64.1° 52.1° - - -
4/25 10:30pm 103 6 G 8 55° 70% - - 45° 64.1° 52.1° - - -
4/25 10:20pm 124 4 G 6 55° 69% - - 45° 64.1° 52.1° - - -
4/25 10:10pm 150 3 G 3 55° 68% - - 45° 64.1° 52.1° - - -
4/25 10:00pm 163 3 G 3 55° 68% - - 45° 64.1° 52.1° - - -
4/25 9:50pm 207 2 G 3 56° 66% - - 45° 64.1° 52.1° - - -
4/25 9:40pm 214 2 G 2 56° 67% - - 45° 64.1° 52.1° - - -
4/25 9:30pm 232 2 G 3 56° 67% - - 45° 64.1° 52.1° - - -
4/25 9:20pm 283 3 G 4 56° 67% - - 45° 64.1° 52.1° - - -
4/25 9:10pm 303 4 G 5 56° 66% - - 45° 64.1° 52.1° - - -
4/25 9:00pm 302 4 G 5 56° 66% - - 45° 64.1° 52.1° - - -
4/25 8:50pm 291 4 G 5 56° 66% - - 45° 64.1° 52.1° - - -
4/25 8:40pm 300 5 G 6 56° 66% - - 45° 64.1° 52.1° - - -
4/25 8:30pm 310 4 G 7 56° 65% - - 45° 64.1° 52.1° - - -
4/25 8:20pm 286 6 G 7 57° 65% - - 45° 64.1° 52.1° - - -
4/25 8:10pm 297 7 G 8 57° 65% - - 45° 64.1° 52.1° - - -
4/25 8:00pm 294 7 G 8 57° 65% - - 45° 64.1° 52.1° - - -
4/25 7:50pm 297 7 G 8 57° 65% - - 45° 64.1° 52.1° - - -
4/25 7:40pm 293 8 G 9 57° 65% - - 45° 64.1° 52.1° - - -
4/25 7:30pm 282 7 G 9 57° 64% - - 45° 64.1° 52.1° - - -
4/25 7:20pm 287 7 G 10 58° 64% - - 45° 64.1° 52.1° - - -
4/25 7:10pm 286 6 G 10 58° 63% - - 46° 64.1° 52.1° - - -
4/25 7:00pm 272 5 G 8 58° 63% - - 46° 64.1° 52.1° - - -
4/25 6:50pm 270 6 G 10 58° 63% - - 46° 64.1° 52.1° - - -
4/25 6:40pm 273 7 G 10 59° 63% - - 46° 64.1° 52.1° - - -
4/25 6:30pm 261 7 G 12 59° 63% - - 47° 64.1° 52.1° - - -
4/25 6:20pm 263 6 G 10 59° 64% - - 47° 64.1° 52.1° - - -
4/25 6:10pm 243 8 G 14 59° 67% - - 48° 64.1° 52.1° - - -
4/25 6:00pm 247 10 G 14 59° 69% - - 49° 64.1° 52.1° - - -
4/25 5:50pm 255 10 G 14 59° 70% - - 49° 64.1° 52.1° - - -
4/25 5:40pm 266 9 G 14 59° 69% - - 49° 64.1° 52.1° - - -
4/25 5:30pm 248 12 G 17 59° 71% - - 49° 64.1° 52.1° - - -
4/25 5:20pm 253 12 G 16 59° 71% - - 50° 64.1° 52.1° - - -
4/25 5:10pm 258 11 G 15 59° 71% - - 50° 64.1° 52.1° - - -
4/25 5:00pm 255 11 G 17 60° 68% - - 50° 64.1° 52.1° - - -
4/25 4:50pm 260 8 G 14 61° 67% - - 50° 64.1° 52.1° - - -
4/25 4:40pm 262 10 G 15 60° 68% - - 50° 64.1° 52.1° - - -
4/25 4:30pm 257 10 G 17 60° 68% - - 49° 64.1° 52.1° - - -
4/25 4:20pm 264 10 G 15 61° 66% - - 49° 64.1° 52.1° - - -
4/25 4:10pm 241 10 G 15 61° 66% - - 50° 64.1° 52.1° - - -
4/25 4:00pm 246 10 G 17 61° 66% - - 50° 64.1° 52.1° - - -
4/25 3:50pm 256 10 G 17 61° 66% - - 50° 64.1° 52.1° - - -
4/25 3:40pm 259 10 G 14 61° 66% - - 49° 64.1° 52.1° - - -
4/25 3:30pm 263 10 G 15 61° 66% - - 49° 64.1° 52.1° - - -
4/25 3:20pm 256 9 G 14 61° 65% - - 49° 64.1° 52.1° - - -
4/25 3:10pm 256 10 G 17 61° 66% - - 49° 64.1° 52.1° - - -
4/25 3:00pm 256 10 G 16 61° 67% - - 50° 64.1° 52.1° - - -
4/25 2:50pm 256 10 G 16 61° 67% - - 50° 64.1° 52.1° - - -
4/25 2:40pm 251 11 G 16 61° 67% - - 50° 64.1° 52.1° - - -
4/25 2:30pm 250 13 G 19 61° 67% - - 50° 64.1° 52.1° - - -
4/25 2:20pm 255 12 G 18 61° 66% - - 50° 64.1° 52.1° - - -
4/25 2:10pm 248 11 G 17 62° 63% - - 49° 64.1° 52.1° - - -
4/25 2:00pm 243 12 G 18 62° 64% - - 49° 64.1° 52.1° - - -
4/25 1:50pm 249 11 G 17 62° 64% - - 49° 64.1° 52.1° - - -
4/25 1:40pm 254 9 G 14 62° 64% - - 50° 64.1° 52.1° - - -
4/25 1:30pm 260 10 G 17 62° 63% - - 49° 64.1° 52.1° - - -
4/25 1:20pm 246 9 G 14 61° 66% - - 50° 64.1° 52.1° - - -
4/25 1:10pm 250 12 G 17 61° 66% - - 50° 64.1° 52.1° - - -
4/25 1:00pm 262 10 G 15 62° 64% - - 50° 64.1° 52.1° - - -
4/25 12:50pm 265 9 G 16 62° 62% - - 49° 64.1° 52.1° - - -
4/25 12:40pm 285 7 G 14 62° 60% - - 48° 64.1° 52.1° - - -
4/25 12:30pm 262 7 G 14 62° 61% - - 48° 64.1° 52.1° - - -
4/25 12:20pm 243 5 G 11 62° 61% - - 48° 64.1° 52.1° - - -
4/25 12:10pm 255 9 G 15 61° 62% - - 48° 64.1° 52.1° - - -
4/25 12:00pm 274 8 G 14 62° 60% - - 48° 64.1° 52.1° - - -
4/25 11:50am 268 7 G 13 61° 61% - - 48° 64.1° 52.1° - - -
4/25 11:40am 269 7 G 13 62° 61% - - 48° 64.1° 52.1° - - -
4/25 11:30am 249 7 G 16 62° 60% - - 48° 64.1° 52.1° - - -
4/25 11:20am 274 5 G 12 63° 59% - - 48° 64.1° 52.1° - - -
4/25 11:10am 286 6 G 12 62° 61% - - 48° 63.4° 52.1° - - -
4/25 11:00am 301 5 G 13 61° 62% - - 48° 63.1° 52.1° - - -
4/25 10:50am 258 6 G 13 61° 63% - - 48° 63.1° 52.1° - - -
4/25 10:40am 319 5 G 12 60° 64% - - 48° 63.1° 52.1° - - -
4/25 10:30am 337 7 G 12 60° 63% - - 47° 61.3° 52.1° - - -
4/25 10:20am 315 4 G 10 59° 68% - - 49° 60.7° 52.1° - - -
4/25 10:10am 263 3 G 7 59° 68% - - 49° 60.5° 52.1° - - -
4/25 10:00am 262 4 G 7 57° 72% - - 48° 58.7° 52.1° - - -
4/25 9:50am 257 6 G 9 57° 73% - - 49° 58.1° 52.1° - - -
4/25 9:40am 261 7 G 11 56° 78% - - 49° 57.9° 52.1° - - -
4/25 9:30am 261 5 G 8 57° 75% - - 49° 57.9° 52.1° - - -
4/25 9:20am 246 5 G 11 57° 73% - - 49° 57.8° 52.1° - - -
4/25 9:10am 265 5 G 9 56° 75% - - 48° 57.2° 52.1° - - -
4/25 9:00am 273 6 G 9 56° 76% - - 49° 57.2° 52.1° - - -
4/25 8:50am 246 5 G 9 56° 77% - - 49° 57.2° 52.1° - - -
4/25 8:40am 244 5 G 7 56° 78% - - 49° 57.2° 52.1° - - -
4/25 8:30am 306 4 G 7 56° 80% - - 50° 57.2° 52.1° - - -
4/25 8:20am 299 4 G 6 55° 82% - - 50° 56.8° 52.1° - - -
4/25 8:10am 306 3 G 7 56° 82% - - 50° 56.6° 52.1° - - -
4/25 8:00am 288 2 G 4 56° 81% - - 50° 56.6° 52.1° - - -
4/25 7:50am 147 1 G 2 55° 83% - - 50° 56.1° 52.1° - - -
4/25 7:40am 55 1 G 2 54° 87% - - 50° 54.9° 52.1° - - -
4/25 7:30am 357 2 G 5 54° 86% - - 50° 54.2° 52.1° - - -
4/25 7:20am 290 1 G 3 54° 86% - - 49° 54.2° 52.1° - - -
4/25 7:10am 232 1 G 3 53° 87% - - 49° 54.2° 52.1° - - -
4/25 7:00am 253 3 G 5 53° 88% - - 49° 54.2° 52.1° - - -
4/25 6:50am 274 3 G 4 53° 89% - - 49° 54.2° 52.1° - - -
4/25 6:40am 300 5 G 7 53° 88% - - 49° 54.2° 52.3° - - -
4/25 6:30am 280 5 G 7 53° 87% - - 49° 54.2° 52.3° - - -
4/25 6:20am 295 4 G 6 53° 87% - - 49° 54.2° 52.4° - - -
4/25 6:10am 317 3 G 4 53° 85% - - 49° 54.2° 52.5° - - -
4/25 6:00am 255 2 G 4 53° 84% - - 49° 54.2° 52.6° - - -
4/25 5:50am 219 3 G 4 53° 84% - - 49° 54.2° 52.6° - - -
4/25 5:40am 213 5 G 6 53° 84% - - 49° 54.2° 52.6° - - -
4/25 5:30am 208 6 G 8 53° 84% - - 49° 54.2° 52.6° - - -
4/25 5:20am 239 4 G 9 53° 84% - - 49° 54.2° 52.6° - - -
4/25 5:10am 217 3 G 6 53° 84% - - 49° 54.2° 52.6° - - -
4/25 5:00am 213 4 G 7 53° 83% - - 48° 54.2° 52.6° - - -
4/25 4:50am 197 5 G 7 53° 83% - - 48° 54.2° 52.6° - - -
4/25 4:40am 189 6 G 8 53° 83% - - 48° 54.2° 52.6° - - -
4/25 4:30am 200 6 G 8 53° 84% - - 49° 54.2° 52.6° - - -
4/25 4:20am 201 4 G 6 53° 85% - - 49° 54.2° 52.6° - - -
4/25 4:10am 195 5 G 7 53° 84% - - 49° 54.2° 52.6° - - -
4/25 4:00am 191 6 G 9 53° 85% - - 49° 54.2° 52.6° - - -
4/25 3:50am 218 6 G 8 53° 85% - - 48° 54.2° 52.6° - - -
4/25 3:40am 211 9 G 12 53° 85% - - 49° 54.2° 52.6° - - -
4/25 3:30am 201 9 G 12 53° 84% - - 48° 54.2° 52.6° - - -
4/25 3:20am 203 9 G 12 53° 85% - - 49° 54.2° 52.6° - - -
4/25 3:10am 209 6 G 11 53° 88% - - 49° 54.2° 52.6° - - -
4/25 3:00am 222 7 G 10 53° 88% - - 50° 54.2° 52.6° - - -
4/25 2:50am 221 7 G 10 53° 87% - - 50° 54.2° 52.6° - - -
4/25 2:40am 229 7 G 10 53° 86% - - 49° 54.2° 52.6° - - -
4/25 2:30am 234 5 G 9 53° 85% - - 49° 54.2° 52.6° - - -
4/25 2:20am 241 5 G 8 53° 84% - - 49° 54.2° 52.6° - - -
4/25 2:10am 247 4 G 6 54° 83% - - 48° 54.2° 52.6° - - -
4/25 2:00am 242 4 G 6 54° 82% - - 48° 54.2° 52.6° - - -
4/25 1:50am 229 5 G 7 54° 82% - - 48° 54.2° 52.6° - - -
4/25 1:40am 207 5 G 8 53° 83% - - 48° 54° 52.6° - - -
4/25 1:30am 233 2 G 4 53° 83% - - 49° 53.8° 52.6° - - -
4/25 1:20am 216 2 G 5 53° 84% - - 49° 53.8° 52.6° - - -
4/25 1:10am 205 7 G 10 53° 84% - - 48° 53.8° 52.6° - - -
4/25 1:00am 204 8 G 10 53° 84% - - 48° 53.8° 52.6° - - -
4/25 12:50am 194 6 G 8 53° 84% - - 48° 53.8° 52.6° - - -
4/25 12:40am 219 7 G 9 53° 83% - - 48° 53.8° 52.6° - - -
4/25 12:30am 230 7 G 12 53° 82% - - 48° 53.8° 52.6° - - -
4/25 12:20am 214 8 G 12 53° 84% - - 48° 53.7° 52.6° - - -
4/25 12:10am 209 8 G 13 53° 87% - - 49° 53.6° 52.6° - - -
4/25 12:00am 236 6 G 9 53° 87% - - 49° 66.2° 48.4° - - -
4/24 11:50pm 241 5 G 9 53° 85% - - 49° 66.2° 48.4° - - -
4/24 11:40pm 252 4 G 6 53° 84% - - 49° 66.2° 48.4° - - -
4/24 11:30pm 251 3 G 5 53° 86% - - 49° 66.2° 48.4° - - -
4/24 11:20pm 253 5 G 6 53° 86% - - 49° 66.2° 48.4° - - -
4/24 11:10pm 255 5 G 9 53° 87% - - 49° 66.2° 48.4° - - -
4/24 11:00pm 247 7 G 11 53° 87% - - 49° 66.2° 48.4° - - -
4/24 10:50pm 247 6 G 10 53° 86% - - 49° 66.2° 48.4° - - -
4/24 10:40pm 208 6 G 11 54° 86% - - 49° 66.2° 48.4° - - -
4/24 10:30pm 206 8 G 12 53° 86% - - 49° 66.2° 48.4° - - -
4/24 10:20pm 236 5 G 10 53° 91% - - 50° 66.2° 48.4° - - -
4/24 10:10pm 251 5 G 6 53° 91% - - 50° 66.2° 48.4° - - -
4/24 10:00pm 257 3 G 5 53° 90% - - 50° 66.2° 48.4° - - -
4/24 9:50pm 269 2 G 4 53° 90% - - 50° 66.2° 48.4° - - -
4/24 9:40pm 272 3 G 4 53° 91% - - 51° 66.2° 48.4° - - -
4/24 9:30pm 270 3 G 4 53° 91% - - 51° 66.2° 48.4° - - -
4/24 9:20pm 256 3 G 5 53° 90% - - 51° 66.2° 48.4° - - -
4/24 9:10pm 248 4 G 5 54° 90% - - 51° 66.2° 48.4° - - -
4/24 9:00pm 264 3 G 6 54° 89% - - 51° 66.2° 48.4° - - -
4/24 8:50pm 266 4 G 6 54° 89% - - 51° 66.2° 48.4° - - -
4/24 8:40pm 262 5 G 7 54° 89% - - 51° 66.2° 48.4° - - -
4/24 8:30pm 268 5 G 7 54° 89% - - 51° 66.2° 48.4° - - -
4/24 8:20pm 272 6 G 8 54° 88% - - 51° 66.2° 48.4° - - -
4/24 8:10pm 269 7 G 9 54° 88% - - 51° 66.2° 48.4° - - -
4/24 8:00pm 266 7 G 9 54° 88% - - 51° 66.2° 48.4° - - -
4/24 7:50pm 264 7 G 9 55° 87% - - 51° 66.2° 48.4° - - -
4/24 7:40pm 256 6 G 9 55° 87% - - 51° 66.2° 48.4° - - -
4/24 7:30pm 260 7 G 9 55° 86% - - 51° 66.2° 48.4° - - -
4/24 7:20pm 269 7 G 9 56° 85% - - 51° 66.2° 48.4° - - -
4/24 7:10pm 271 6 G 9 56° 83% - - 51° 66.2° 48.4° - - -
4/24 7:00pm 265 7 G 9 57° 82% - - 51° 66.2° 48.4° - - -
4/24 6:50pm 264 7 G 10 57° 82% - - 51° 66.2° 48.4° - - -
4/24 6:40pm 268 7 G 9 57° 81% - - 51° 66.2° 48.4° - - -
4/24 6:30pm 263 6 G 9 58° 79% - - 51° 66.2° 48.4° - - -
4/24 6:20pm 268 5 G 9 58° 79% - - 51° 66.2° 48.4° - - -
4/24 6:10pm 276 5 G 9 59° 75% - - 51° 66.2° 48.4° - - -
4/24 6:00pm 274 6 G 9 59° 77% - - 51° 66.2° 48.4° - - -